Time;durP1;ratioP1;P1;durP2;ratioP2;P2;SDS_P1;SDS_P2;PMS_P1;PMS_P2;Temp;Humidity;BMP_temperature;BMP_pressure;BME280_temperature;BME280_humidity;BME280_pressure;Samples;Min_cycle;Max_cycle;Signal;HPM_P1;HPM_P2
2021/06/06 00:00:32;;;;;;;59.10;24.40;;;14.70;99.90;;;;;;5074645;28;20144;-65
2021/06/06 00:03:03;;;;;;;53.20;23.60;;;14.60;99.90;;;;;;5093474;28;20491;-64
2021/06/06 00:05:57;;;;;;;56.40;22.70;;;14.60;99.90;;;;;;5070049;28;20087;-65
2021/06/06 00:08:32;;;;;;;;;;;14.60;99.90;;;;;;5069702;28;20123;-65
2021/06/06 00:11:20;;;;;;;58.80;19.75;;;14.70;99.90;;;;;;5074225;28;19998;-64
2021/06/06 00:14:18;;;;;;;44.22;18.75;;;14.60;99.90;;;;;;5065225;28;20118;-65
2021/06/06 00:20:27;;;;;;;37.50;17.42;;;14.70;99.90;;;;;;5068560;28;20059;-64
2021/06/06 00:22:55;;;;;;;54.65;22.00;;;14.70;99.90;;;;;;5065060;28;20408;-65
2021/06/06 00:25:43;;;;;;;41.30;18.13;;;14.70;99.90;;;;;;5068191;28;20036;-65
2021/06/06 00:36:08;;;;;;;40.67;17.88;;;14.60;99.90;;;;;;5071119;28;20426;-64
2021/06/06 00:38:37;;;;;;;50.25;22.88;;;14.60;99.90;;;;;;5078998;28;20398;-64
2021/06/06 00:41:14;;;;;;;42.35;19.67;;;14.70;99.90;;;;;;5083792;28;20047;-64
2021/06/06 00:44:18;;;;;;;42.17;19.60;;;14.60;99.90;;;;;;5059253;28;20169;-65
2021/06/06 00:50:30;;;;;;;44.10;20.00;;;14.70;99.90;;;;;;5069118;28;19915;-64
2021/06/06 00:53:06;;;;;;;50.03;24.08;;;14.60;99.90;;;;;;5073464;28;20051;-65
2021/06/06 00:55:44;;;;;;;52.92;22.17;;;14.60;99.90;;;;;;5092383;28;20044;-64
2021/06/06 00:58:35;;;;;;;42.08;20.17;;;14.60;99.90;;;;;;5083695;28;20040;-64
2021/06/06 01:05:07;;;;;;;31.80;16.40;;;14.70;99.90;;;;;;5067211;28;20057;-64
2021/06/06 01:08:10;;;;;;;40.20;19.13;;;14.70;99.90;;;;;;5089546;28;20032;-65
2021/06/06 01:11:32;;;;;;;33.15;16.17;;;14.70;99.90;;;;;;5071624;28;20052;-64
2021/06/06 01:14:43;;;;;;;39.55;20.15;;;14.70;99.90;;;;;;5070988;28;20086;-65
2021/06/06 01:18:01;;;;;;;38.90;18.98;;;14.80;99.90;;;;;;5086008;28;20122;-64
2021/06/06 01:21:09;;;;;;;33.15;18.60;;;14.80;99.90;;;;;;5077277;28;20045;-65
2021/06/06 01:24:06;;;;;;;35.03;18.75;;;14.80;99.90;;;;;;5063638;28;20052;-65
2021/06/06 01:30:45;;;;;;;;;;;;;;;;;;;;;
2021/06/06 01:34:08;;;;;;;27.75;16.33;;;14.80;99.90;;;;;;5084040;28;20408;-65
2021/06/06 01:40:33;;;;;;;32.58;16.40;;;14.80;99.90;;;;;;5030119;28;20044;-64
2021/06/06 01:43:05;;;;;;;33.83;18.90;;;14.80;99.90;;;;;;5030654;28;20054;-65
2021/06/06 01:52:59;;;;;;;32.50;18.80;;;14.80;99.90;;;;;;5034267;28;20158;-65
2021/06/06 01:55:51;;;;;;;38.95;18.92;;;14.80;99.90;;;;;;5018091;28;20049;-64
2021/06/06 01:58:36;;;;;;;38.45;20.05;;;14.80;99.90;;;;;;5031557;28;20489;-64
2021/06/06 02:13:02;;;;;;;26.65;17.23;;;14.70;99.90;;;;;;5064501;28;20032;-64
2021/06/06 02:15:37;;;;;;;29.13;17.48;;;14.70;99.90;;;;;;5068258;28;20044;-64
2021/06/06 02:18:08;;;;;;;33.13;17.45;;;14.70;99.90;;;;;;5063949;28;20049;-65
2021/06/06 02:21:02;;;;;;;40.35;22.60;;;14.80;99.90;;;;;;5094335;28;20548;-65
2021/06/06 02:23:34;;;;;;;32.08;18.17;;;14.70;99.90;;;;;;5081258;28;20492;-65
2021/06/06 02:30:28;;;;;;;24.60;16.58;;;14.70;99.90;;;;;;5069479;28;20055;-64
2021/06/06 02:33:31;;;;;;;39.23;23.03;;;14.70;99.90;;;;;;5075311;28;20040;-65
2021/06/06 02:36:19;;;;;;;30.00;17.52;;;14.70;99.90;;;;;;5066855;28;20114;-64
2021/06/06 02:43:18;;;;;;;30.70;17.88;;;14.70;99.90;;;;;;5066077;28;20106;-65
2021/06/06 02:45:56;;;;;;;33.15;20.83;;;14.70;99.90;;;;;;5025461;28;20041;-64
2021/06/06 02:48:30;;;;;;;32.88;20.15;;;14.60;99.90;;;;;;5033139;28;20049;-65
2021/06/06 02:55:27;;;;;;;30.00;18.67;;;14.60;99.90;;;;;;5033071;28;20113;-64
2021/06/06 02:58:27;;;;;;;33.63;17.73;;;14.60;99.90;;;;;;5027839;28;20045;-65
2021/06/06 03:01:20;;;;;;;30.27;18.23;;;14.60;99.90;;;;;;5028853;28;20045;-65
2021/06/06 03:07:57;;;;;;;27.45;16.48;;;14.60;99.90;;;;;;5032604;28;20056;-64
2021/06/06 03:10:31;;;;;;;28.45;16.67;;;14.60;99.90;;;;;;5032868;28;20045;-64
2021/06/06 03:13:03;;;;;;;29.52;16.85;;;14.50;99.90;;;;;;5016631;28;20103;-65
2021/06/06 03:16:00;;;;;;;33.05;17.60;;;14.50;99.90;;;;;;5032283;28;20107;-64
2021/06/06 03:18:37;;;;;;;31.17;17.90;;;14.50;99.90;;;;;;5074697;28;20484;-65
2021/06/06 03:21:22;;;;;;;29.23;17.70;;;14.50;99.90;;;;;;5074715;28;20048;-65
2021/06/06 03:28:02;;;;;;;40.42;20.75;;;14.50;99.90;;;;;;5074614;28;20039;-65
2021/06/06 03:30:34;;;;;;;37.05;20.77;;;14.50;99.90;;;;;;5075382;28;20041;-65
2021/06/06 03:33:07;;;;;;;32.17;17.77;;;14.40;99.90;;;;;;5072105;28;20051;-65
2021/06/06 03:35:33;;;;;;;42.58;21.65;;;14.50;99.90;;;;;;5075089;28;20400;-65
2021/06/06 03:38:00;;;;;;;30.95;18.02;;;14.50;99.90;;;;;;5095409;28;20032;-65
2021/06/06 03:40:38;;;;;;;25.73;15.52;;;14.50;99.90;;;;;;5074435;28;20411;-65
2021/06/06 03:43:20;;;;;;;27.48;16.88;;;14.50;99.90;;;;;;5058832;28;20049;-65
2021/06/06 03:45:53;;;;;;;32.05;19.83;;;14.50;99.90;;;;;;5074151;28;20500;-64
2021/06/06 03:48:40;;;;;;;28.75;18.80;;;14.40;99.90;;;;;;5055889;28;20896;-65
2021/06/06 03:54:57;;;;;;;29.85;17.55;;;14.40;99.90;;;;;;5072210;28;20034;-65
2021/06/06 03:57:42;;;;;;;38.50;21.83;;;14.40;99.90;;;;;;5077762;28;20098;-65
2021/06/06 04:00:16;;;;;;;38.13;20.73;;;14.40;99.90;;;;;;5070497;28;20064;-65
2021/06/06 04:03:00;;;;;;;;;;;14.40;99.90;;;;;;5054516;28;20071;-65
2021/06/06 04:05:48;;;;;;;36.75;19.52;;;14.40;99.90;;;;;;5054177;28;19924;-65
2021/06/06 04:08:20;;;;;;;30.73;18.98;;;14.30;99.90;;;;;;5055466;28;20052;-65
2021/06/06 04:10:54;;;;;;;31.25;20.15;;;14.30;99.90;;;;;;5077166;28;20040;-65
2021/06/06 04:13:32;;;;;;;35.58;19.92;;;14.20;99.90;;;;;;5057304;28;20071;-65
2021/06/06 04:16:00;;;;;;;39.45;22.48;;;14.20;99.90;;;;;;5086812;28;20185;-65
2021/06/06 04:18:30;;;;;;;37.67;19.85;;;14.30;99.90;;;;;;5062454;28;20037;-65
2021/06/06 04:21:11;;;;;;;31.95;17.60;;;14.30;99.90;;;;;;5066349;28;20421;-65
2021/06/06 04:27:58;;;;;;;35.03;20.98;;;14.30;99.90;;;;;;5074060;28;20086;-64
2021/06/06 04:30:32;;;;;;;37.58;22.23;;;14.30;99.90;;;;;;5088601;28;20040;-65
2021/06/06 04:33:31;;;;;;;;;;;14.30;99.90;;;;;;5074114;28;20052;-65
2021/06/06 04:36:10;;;;;;;32.85;17.92;;;14.30;99.90;;;;;;5057436;28;20295;-65
2021/06/06 04:38:55;;;;;;;36.47;20.88;;;14.30;99.90;;;;;;5069357;28;20476;-65
2021/06/06 04:41:24;;;;;;;37.15;19.95;;;14.20;99.90;;;;;;5073131;28;20053;-64
2021/06/06 04:43:50;;;;;;;34.97;19.15;;;14.10;99.90;;;;;;5060209;28;20117;-65
2021/06/06 04:46:16;;;;;;;34.67;19.25;;;14.10;99.90;;;;;;5073854;28;20057;-65
2021/06/06 04:53:03;;;;;;;30.95;15.65;;;14.20;99.90;;;;;;5062237;28;20036;-65
2021/06/06 04:55:35;;;;;;;28.90;14.75;;;14.20;99.90;;;;;;5067757;28;20053;-65
2021/06/06 04:58:11;;;;;;;23.42;13.57;;;14.20;99.90;;;;;;5068120;28;20421;-65
2021/06/06 05:00:40;;;;;;;28.35;16.67;;;14.30;99.90;;;;;;5072946;28;20083;-65
2021/06/06 05:03:13;;;;;;;25.42;14.20;;;14.20;99.90;;;;;;5056408;28;20431;-64
2021/06/06 05:06:14;;;;;;;16.40;11.10;;;14.30;99.90;;;;;;5066975;28;20036;-65
2021/06/06 05:13:01;;;;;;;32.25;16.38;;;14.40;99.90;;;;;;5069590;28;20031;-64
2021/06/06 05:15:29;;;;;;;29.13;17.48;;;14.40;99.90;;;;;;5064802;28;20058;-65
2021/06/06 05:18:00;;;;;;;25.25;14.82;;;14.40;99.90;;;;;;5073269;28;20044;-65
2021/06/06 05:20:36;;;;;;;26.38;14.13;;;14.40;99.90;;;;;;5071996;28;20059;-65
2021/06/06 05:23:18;;;;;;;25.95;15.02;;;14.40;99.90;;;;;;5077657;28;20041;-64
2021/06/06 05:26:09;;;;;;;27.25;13.50;;;14.50;99.90;;;;;;5061994;28;20041;-65
2021/06/06 05:28:39;;;;;;;29.67;16.00;;;14.50;99.90;;;;;;5082093;28;20123;-65
2021/06/06 05:31:08;;;;;;;34.55;18.13;;;14.50;99.90;;;;;;5075227;28;20040;-64
2021/06/06 05:33:40;;;;;;;33.63;17.77;;;14.40;99.90;;;;;;5075924;28;20118;-65
2021/06/06 05:36:18;;;;;;;32.90;19.35;;;14.50;99.90;;;;;;5061381;28;20047;-64
2021/06/06 05:38:46;;;;;;;27.52;15.00;;;14.40;99.90;;;;;;5067752;28;20041;-65
2021/06/06 05:45:28;;;;;;;26.45;14.57;;;14.40;99.90;;;;;;5080398;28;20133;-64
2021/06/06 05:48:05;;;;;;;26.08;14.35;;;14.40;99.90;;;;;;5058535;28;20119;-65
2021/06/06 05:50:42;;;;;;;33.80;15.02;;;14.50;99.90;;;;;;5090958;28;20032;-65
2021/06/06 05:53:14;;;;;;;38.05;17.50;;;14.50;99.90;;;;;;5079121;28;20043;-65
2021/06/06 05:55:48;;;;;;;37.47;19.08;;;14.50;99.90;;;;;;5077560;28;20116;-65
2021/06/06 05:58:21;;;;;;;39.90;18.42;;;14.50;99.90;;;;;;5058333;28;20538;-65
2021/06/06 06:00:50;;;;;;;;;;;14.40;99.90;;;;;;5069323;28;20065;-65
2021/06/06 06:03:22;;;;;;;39.10;18.85;;;14.40;99.90;;;;;;5096417;28;19920;-65
2021/06/06 06:06:18;;;;;;;46.53;21.58;;;14.40;99.90;;;;;;5072350;28;20044;-65
2021/06/06 06:08:50;;;;;;;32.08;15.82;;;14.40;99.90;;;;;;5068963;28;20047;-65
2021/06/06 06:11:23;;;;;;;36.05;15.95;;;14.30;99.90;;;;;;5076388;28;20048;-65
2021/06/06 06:14:16;;;;;;;45.85;21.48;;;14.40;99.90;;;;;;5078208;28;20044;-65
2021/06/06 06:35:33;;;;;;;22.45;10.98;;;14.30;99.90;;;;;;5069274;28;20119;-64
2021/06/06 06:38:52;;;;;;;24.17;10.80;;;14.30;99.90;;;;;;5072959;28;20044;-65
2021/06/06 06:41:28;;;;;;;20.80;10.52;;;14.30;99.90;;;;;;5075675;28;20408;-64
2021/06/06 06:44:24;;;;;;;27.40;11.45;;;14.30;99.90;;;;;;5072869;28;20044;-65
2021/06/06 06:46:56;;;;;;;21.13;10.75;;;14.30;99.90;;;;;;5059468;28;20056;-64
2021/06/06 06:49:31;;;;;;;25.67;12.82;;;14.30;99.90;;;;;;5087276;28;20063;-65
2021/06/06 06:52:04;;;;;;;27.90;13.27;;;14.30;99.90;;;;;;5095608;28;20054;-65
2021/06/06 07:01:51;;;;;;;29.42;14.35;;;14.20;99.90;;;;;;5045173;28;20503;-65
2021/06/06 07:04:24;;;;;;;31.17;14.25;;;14.10;99.90;;;;;;5055057;28;20045;-64
2021/06/06 07:07:04;;;;;;;26.48;13.50;;;14.20;99.90;;;;;;5074948;28;20043;-64
2021/06/06 07:17:22;;;;;;;37.25;17.35;;;14.20;99.90;;;;;;5071761;28;20385;-65
2021/06/06 07:23:51;;;;;;;41.55;19.48;;;14.30;99.90;;;;;;5056995;28;20087;-65
2021/06/06 07:26:41;;;;;;;28.92;15.63;;;14.30;99.90;;;;;;5055657;28;20049;-65
2021/06/06 07:37:00;;;;;;;45.08;20.48;;;14.30;99.90;;;;;;5056934;28;20066;-65
2021/06/06 07:44:06;;;;;;;34.10;17.73;;;14.30;99.90;;;;;;5078006;28;20062;-65
2021/06/06 07:46:39;;;;;;;37.58;18.33;;;14.20;99.90;;;;;;5089367;28;20044;-64
2021/06/06 07:49:09;;;;;;;41.28;16.15;;;14.20;99.90;;;;;;5060428;28;20083;-64
2021/06/06 07:51:38;;;;;;;28.85;15.57;;;14.30;99.90;;;;;;5075810;28;20544;-64
2021/06/06 07:54:32;;;;;;;29.35;13.98;;;14.30;99.90;;;;;;5079053;28;20044;-64
2021/06/06 08:01:23;;;;;;;29.33;15.65;;;14.30;99.90;;;;;;5068884;28;20081;-64
2021/06/06 08:03:52;;;;;;;40.00;20.38;;;14.30;99.90;;;;;;5024993;28;20081;-64
2021/06/06 08:06:27;;;;;;;35.08;17.40;;;14.30;99.90;;;;;;5020055;28;20401;-64
2021/06/06 08:08:55;;;;;;;48.67;18.30;;;14.40;99.90;;;;;;5029345;28;20041;-64
2021/06/06 08:11:29;;;;;;;29.58;14.30;;;14.50;99.90;;;;;;5023609;28;20041;-64
2021/06/06 08:14:09;;;;;;;32.35;15.82;;;14.50;99.90;;;;;;5018492;28;20046;-64
2021/06/06 08:23:56;;;;;;;29.48;13.13;;;14.40;99.90;;;;;;5030705;28;20049;-64
2021/06/06 08:26:25;;;;;;;22.88;10.82;;;14.40;99.90;;;;;;5016785;28;20045;-64
2021/06/06 08:28:53;;;;;;;22.63;11.73;;;14.50;99.90;;;;;;5026895;28;20114;-64
2021/06/06 08:31:24;;;;;;;30.83;14.00;;;14.40;99.90;;;;;;5018442;28;20054;-64
2021/06/06 08:33:52;;;;;;;25.45;12.40;;;14.40;99.90;;;;;;5014259;28;20042;-64
2021/06/06 08:36:43;;;;;;;29.35;14.18;;;14.30;99.90;;;;;;5030843;28;20140;-64
2021/06/06 08:39:30;;;;;;;31.65;14.05;;;14.30;99.90;;;;;;5020059;28;20504;-63
2021/06/06 08:42:19;;;;;;;27.55;13.70;;;14.30;99.90;;;;;;5022946;28;20497;-66
2021/06/06 08:45:07;;;;;;;25.83;12.02;;;14.30;99.90;;;;;;5019055;28;20072;-67
2021/06/06 08:52:03;;;;;;;16.77;9.88;;;14.20;99.90;;;;;;5028581;28;20037;-65
2021/06/06 08:55:07;;;;;;;25.55;13.38;;;14.30;99.90;;;;;;5016049;28;20052;-66
2021/06/06 09:01:23;;;;;;;16.08;8.93;;;14.30;99.90;;;;;;5019637;28;20041;-65
2021/06/06 09:03:55;;;;;;;13.60;8.00;;;14.40;99.90;;;;;;5013519;28;20045;-65
2021/06/06 09:07:02;;;;;;;18.63;10.13;;;14.40;99.90;;;;;;5021762;28;20049;-67
2021/06/06 09:09:34;;;;;;;14.68;7.68;;;14.40;99.90;;;;;;5015764;28;20074;-67
2021/06/06 09:12:20;;;;;;;14.93;8.43;;;14.50;99.90;;;;;;5018299;28;20120;-66
2021/06/06 09:14:48;;;;;;;14.38;8.32;;;14.40;99.90;;;;;;5017899;28;20045;-68
2021/06/06 09:21:26;;;;;;;13.63;8.50;;;14.50;99.90;;;;;;5029906;28;20033;-67
2021/06/06 09:24:05;;;;;;;14.18;8.30;;;14.50;99.90;;;;;;5017250;28;20049;-67
2021/06/06 09:26:38;;;;;;;13.20;8.10;;;14.40;99.90;;;;;;5013054;28;20117;-67
2021/06/06 09:29:29;;;;;;;;;;;14.40;99.90;;;;;;5015813;28;20053;-67
2021/06/06 09:32:19;;;;;;;12.75;7.88;;;14.40;99.90;;;;;;5013207;28;19952;-67
2021/06/06 09:38:55;;;;;;;11.07;6.82;;;14.40;99.90;;;;;;5019968;28;20040;-67
2021/06/06 09:41:57;;;;;;;8.30;5.47;;;14.50;99.90;;;;;;5017016;28;20042;-66
2021/06/06 09:44:42;;;;;;;10.25;6.60;;;14.50;99.90;;;;;;5033514;28;20472;-68
2021/06/06 09:47:20;;;;;;;10.95;7.07;;;14.50;99.90;;;;;;5015203;28;20054;-67
2021/06/06 09:54:04;;;;;;;8.95;5.63;;;14.40;99.90;;;;;;5024222;28;20028;-67
2021/06/06 09:56:32;;;;;;;10.27;6.15;;;14.50;99.90;;;;;;5032671;28;20049;-67
2021/06/06 10:06:33;;;;;;;5.35;3.75;;;14.50;99.90;;;;;;5069697;28;20040;-67
2021/06/06 10:09:28;;;;;;;6.13;3.95;;;14.60;99.90;;;;;;5081009;28;20055;-67
2021/06/06 10:16:19;;;;;;;4.03;3.00;;;14.60;99.90;;;;;;5075757;28;20419;-67
2021/06/06 10:19:11;;;;;;;4.88;2.72;;;14.60;99.90;;;;;;5070024;28;20048;-68
2021/06/06 10:21:46;;;;;;;4.50;3.28;;;14.70;99.90;;;;;;5033187;28;20053;-66
2021/06/06 10:31:31;;;;;;;3.90;2.75;;;14.70;99.90;;;;;;5074332;28;20109;-65
2021/06/06 10:34:35;;;;;;;4.60;3.28;;;14.70;99.90;;;;;;5077137;28;20037;-67
2021/06/06 10:37:08;;;;;;;3.60;2.53;;;14.60;99.90;;;;;;5071374;28;20052;-68
2021/06/06 10:39:44;;;;;;;5.45;3.97;;;14.60;99.90;;;;;;5080127;28;20067;-67
2021/06/06 10:46:29;;;;;;;3.90;2.75;;;14.60;99.90;;;;;;5062255;28;20032;-67
2021/06/06 10:49:47;;;;;;;4.70;2.47;;;14.60;99.90;;;;;;5075678;28;20044;-67
2021/06/06 10:56:32;;;;;;;3.78;2.53;;;14.70;99.90;;;;;;5013534;28;20568;-67
2021/06/06 11:06:39;;;;;;;3.80;2.60;;;14.70;99.90;;;;;;5011754;28;20057;-68
2021/06/06 11:09:29;;;;;;;5.45;3.03;;;14.60;99.90;;;;;;5045230;28;20057;-68
2021/06/06 11:12:27;;;;;;;5.13;3.17;;;14.60;99.90;;;;;;5067905;28;20468;-69
2021/06/06 11:19:30;;;;;;;4.60;3.38;;;14.60;99.90;;;;;;5061596;28;20457;-65
2021/06/06 11:26:33;;;;;;;5.25;3.63;;;14.50;99.90;;;;;;5067020;28;20051;-64
2021/06/06 11:29:39;;;;;;;7.30;5.07;;;14.60;99.90;;;;;;5079017;28;20071;-65
2021/06/06 11:35:55;;;;;;;7.03;3.97;;;14.60;99.90;;;;;;5070135;28;20031;-65
2021/06/06 11:39:00;;;;;;;5.10;3.25;;;14.60;99.90;;;;;;5079612;28;20044;-65
2021/06/06 11:41:37;;;;;;;7.65;4.55;;;14.60;99.90;;;;;;5059031;28;20057;-64
2021/06/06 11:44:21;;;;;;;8.80;5.00;;;14.50;99.90;;;;;;5087249;28;20044;-65
2021/06/06 11:47:07;;;;;;;;;;;14.50;99.90;;;;;;5070822;28;20054;-65
2021/06/06 11:50:16;;;;;;;9.85;5.15;;;14.50;99.90;;;;;;5056434;28;19989;-64
2021/06/06 11:57:01;;;;;;;7.25;4.30;;;14.40;99.90;;;;;;5085459;28;20066;-65
2021/06/06 12:04:02;;;;;;;7.82;4.22;;;14.40;99.90;;;;;;5070027;28;20066;-65
2021/06/06 12:06:32;;;;;;;10.05;4.80;;;14.50;99.90;;;;;;5058589;28;20045;-65
2021/06/06 12:09:19;;;;;;;10.45;5.70;;;14.50;99.90;;;;;;5053918;28;20060;-65
2021/06/06 12:12:06;;;;;;;10.40;5.60;;;14.40;99.90;;;;;;5056151;28;20045;-65
2021/06/06 12:14:33;;;;;;;12.25;6.22;;;14.40;99.90;;;;;;5069479;28;20118;-69
2021/06/06 12:21:28;;;;;;;7.72;4.07;;;14.40;99.90;;;;;;5071234;28;20031;-67
2021/06/06 12:24:21;;;;;;;8.63;4.80;;;14.50;99.90;;;;;;5072730;28;20506;-69
2021/06/06 12:26:54;;;;;;;10.47;5.40;;;14.50;99.90;;;;;;5072922;28;20037;-68
2021/06/06 12:33:37;;;;;;;10.75;5.55;;;14.70;99.90;;;;;;5068067;28;20155;-69
2021/06/06 12:36:34;;;;;;;12.52;7.88;;;14.80;99.90;;;;;;5059725;28;20045;-68
2021/06/06 12:39:34;;;;;;;11.57;5.30;;;14.80;99.90;;;;;;5064968;28;20111;-72
2021/06/06 12:42:15;;;;;;;12.32;6.93;;;14.90;99.90;;;;;;5062486;28;20036;-72
2021/06/06 12:44:47;;;;;;;14.13;7.15;;;14.90;99.90;;;;;;5065065;28;20051;-73
2021/06/06 12:51:34;;;;;;;12.85;7.18;;;15.00;99.90;;;;;;5093216;28;20073;-70
2021/06/06 12:54:17;;;;;;;16.77;8.48;;;15.00;99.90;;;;;;5073379;28;20043;-72
2021/06/06 13:00:33;;;;;;;14.48;7.32;;;15.10;99.90;;;;;;5080934;28;20038;-71
2021/06/06 13:07:17;;;;;;;15.50;6.38;;;15.10;99.90;;;;;;5013412;28;20137;-72
2021/06/06 13:09:48;;;;;;;18.95;7.63;;;15.10;99.90;;;;;;5042484;28;20041;-71
2021/06/06 13:12:42;;;;;;;17.13;8.82;;;15.10;99.90;;;;;;5018129;28;20528;-71
2021/06/06 13:19:14;;;;;;;23.00;9.27;;;15.00;99.90;;;;;;5018142;28;20053;-68
2021/06/06 13:26:07;;;;;;;10.05;6.03;;;15.00;99.90;;;;;;5035370;28;20036;-71
2021/06/06 13:29:07;;;;;;;19.85;10.50;;;15.00;99.90;;;;;;5026119;28;20073;-69
2021/06/06 13:31:51;;;;;;;21.38;10.43;;;15.00;99.90;;;;;;5020659;28;20045;-70
2021/06/06 13:34:23;;;;;;;19.45;8.95;;;15.10;99.90;;;;;;5019778;28;20045;-72
2021/06/06 13:37:08;;;;;;;18.40;8.25;;;15.10;99.90;;;;;;5016752;28;20068;-72
2021/06/06 13:39:36;;;;;;;20.63;9.23;;;15.10;99.90;;;;;;5013613;28;20041;-71
2021/06/06 13:42:24;;;;;;;15.82;7.28;;;15.20;99.90;;;;;;5019583;28;20053;-71
2021/06/06 13:45:07;;;;;;;16.30;7.05;;;15.20;99.90;;;;;;5029321;28;20103;-71
2021/06/06 13:47:36;;;;;;;19.10;8.77;;;15.30;99.90;;;;;;5030442;28;20071;-71
2021/06/06 13:50:17;;;;;;;15.35;8.60;;;15.30;99.90;;;;;;5054145;28;20036;-67
2021/06/06 13:56:38;;;;;;;18.95;8.13;;;15.30;99.90;;;;;;5036238;28;20048;-66
2021/06/06 13:59:06;;;;;;;15.43;7.60;;;15.20;99.90;;;;;;5035047;28;20397;-63
2021/06/06 14:02:09;;;;;;;12.63;6.45;;;15.30;99.90;;;;;;5031363;28;20056;-64
2021/06/06 14:04:37;;;;;;;8.18;5.07;;;15.30;99.90;;;;;;5042166;28;20070;-67
2021/06/06 14:07:16;;;;;;;17.67;7.13;;;15.30;99.90;;;;;;5074902;28;20044;-65
2021/06/06 14:14:03;;;;;;;12.40;6.55;;;15.30;99.90;;;;;;5084625;28;20039;-66
2021/06/06 14:16:37;;;;;;;14.38;7.63;;;15.30;99.90;;;;;;5085222;28;20052;-64
2021/06/06 14:19:12;;;;;;;15.85;8.55;;;15.40;99.90;;;;;;5076687;28;20461;-64
2021/06/06 14:21:57;;;;;;;15.77;7.78;;;15.30;99.90;;;;;;5076036;28;20050;-65
2021/06/06 14:24:31;;;;;;;15.30;7.40;;;15.30;99.90;;;;;;5074956;28;20044;-64
2021/06/06 14:27:00;;;;;;;16.27;8.25;;;15.40;99.90;;;;;;5064987;28;20064;-64
2021/06/06 14:36:35;;;;;;;14.07;6.78;;;15.40;99.90;;;;;;5061692;28;20507;-64
2021/06/06 14:39:12;;;;;;;13.98;5.75;;;15.40;99.90;;;;;;5068915;28;20060;-65
2021/06/06 14:41:45;;;;;;;15.35;7.82;;;15.40;99.90;;;;;;5073834;28;20048;-65
2021/06/06 14:44:20;;;;;;;12.10;6.68;;;15.40;99.90;;;;;;5055847;28;20507;-64
2021/06/06 14:47:09;;;;;;;17.20;7.00;;;15.50;99.90;;;;;;5073840;28;20051;-64
2021/06/06 14:49:41;;;;;;;13.98;8.38;;;15.50;99.90;;;;;;5061349;28;20041;-65
2021/06/06 14:52:21;;;;;;;27.77;14.82;;;15.50;99.90;;;;;;5087332;28;20073;-65
2021/06/06 14:54:55;;;;;;;26.60;14.82;;;15.40;99.90;;;;;;5061776;28;20480;-66
2021/06/06 15:01:41;;;;;;;14.00;8.13;;;15.50;99.90;;;;;;5068715;28;20036;-65
2021/06/06 15:04:50;;;;;;;12.43;6.38;;;15.40;99.90;;;;;;5083950;28;20043;-65
2021/06/06 15:11:40;;;;;;;15.85;7.53;;;15.40;99.90;;;;;;5026677;28;20125;-65
2021/06/06 15:14:13;;;;;;;13.90;5.97;;;15.40;99.90;;;;;;5033115;28;20045;-64
2021/06/06 15:17:03;;;;;;;23.83;10.88;;;15.50;99.90;;;;;;5036314;28;20064;-65
2021/06/06 15:19:54;;;;;;;13.30;6.65;;;15.50;99.90;;;;;;5035473;28;20505;-65
2021/06/06 15:22:23;;;;;;;16.83;7.05;;;15.60;99.90;;;;;;5029426;28;20046;-65
2021/06/06 15:29:12;;;;;;;16.65;6.75;;;15.70;99.90;;;;;;5022080;28;20041;-66
2021/06/06 15:31:50;;;;;;;12.60;6.50;;;15.80;99.90;;;;;;5020339;28;20050;-66
2021/06/06 15:34:19;;;;;;;9.30;5.28;;;15.90;99.90;;;;;;5047674;28;20122;-66
2021/06/06 15:36:47;;;;;;;9.90;6.30;;;16.00;99.90;;;;;;5036120;28;20048;-65
2021/06/06 15:39:17;;;;;;;9.93;4.90;;;16.00;99.90;;;;;;5027580;28;20045;-66
2021/06/06 15:41:49;;;;;;;14.98;6.18;;;16.10;99.90;;;;;;5041645;28;20346;-66
2021/06/06 15:44:32;;;;;;;6.90;4.50;;;16.10;99.90;;;;;;5052640;28;20037;-67
2021/06/06 15:47:06;;;;;;;14.27;6.43;;;16.20;99.90;;;;;;5018729;28;20128;-68
2021/06/06 15:49:47;;;;;;;10.63;6.10;;;16.20;99.90;;;;;;5018656;28;20046;-67
2021/06/06 15:56:07;;;;;;;15.32;6.65;;;16.20;99.90;;;;;;5029262;28;20083;-68
2021/06/06 16:02:24;;;;;;;11.10;6.50;;;16.40;99.90;;;;;;5021538;28;20035;-68
2021/06/06 16:04:50;;;;;;;13.20;7.18;;;16.50;99.90;;;;;;5045869;28;20041;-68
2021/06/06 16:07:19;;;;;;;9.65;5.10;;;16.50;99.90;;;;;;5055751;28;20057;-68
2021/06/06 16:16:57;;;;;;;9.63;6.05;;;16.60;99.90;;;;;;5055532;28;20085;-68
2021/06/06 16:19:29;;;;;;;15.90;8.57;;;16.60;99.90;;;;;;5072509;28;20133;-68
2021/06/06 16:22:01;;;;;;;16.15;10.40;;;16.60;99.90;;;;;;5067529;28;20043;-68
2021/06/06 16:24:33;;;;;;;15.70;7.38;;;16.60;99.90;;;;;;5072991;28;20798;-68
2021/06/06 16:27:01;;;;;;;9.63;6.07;;;16.60;99.90;;;;;;5082380;28;20407;-68
2021/06/06 16:29:28;;;;;;;12.93;6.50;;;16.60;99.90;;;;;;5084574;28;20081;-68
2021/06/06 16:32:01;;;;;;;16.20;9.25;;;16.50;99.90;;;;;;5068448;28;20041;-68
2021/06/06 16:35:00;;;;;;;;;;;16.50;99.90;;;;;;5069937;28;20166;-68
2021/06/06 16:41:53;;;;;;;9.90;5.35;;;16.40;99.90;;;;;;5070149;28;20035;-69
2021/06/06 16:44:20;;;;;;;9.30;5.70;;;16.20;99.90;;;;;;5087089;28;20051;-68
2021/06/06 16:46:49;;;;;;;12.02;7.07;;;16.10;99.90;;;;;;5068847;28;20119;-68
2021/06/06 16:49:24;;;;;;;15.18;7.75;;;16.00;99.90;;;;;;5069181;28;20044;-68
2021/06/06 16:51:57;;;;;;;15.40;8.20;;;16.00;99.90;;;;;;5063902;28;20037;-68
2021/06/06 16:54:35;;;;;;;28.25;17.73;;;15.90;99.90;;;;;;5069245;28;20105;-68
2021/06/06 16:57:15;;;;;;;25.73;16.00;;;15.90;99.90;;;;;;5068756;28;20128;-68
2021/06/06 16:59:44;;;;;;;8.50;5.72;;;15.90;99.90;;;;;;5071127;28;20071;-68
2021/06/06 17:02:40;;;;;;;9.68;6.05;;;15.80;99.90;;;;;;5084732;28;20123;-68
2021/06/06 17:05:20;;;;;;;13.23;7.53;;;15.80;99.90;;;;;;5082835;28;20400;-68
2021/06/06 17:07:49;;;;;;;7.40;5.30;;;15.80;99.90;;;;;;5046634;28;20048;-68
2021/06/06 17:10:17;;;;;;;11.70;6.25;;;15.80;99.90;;;;;;5033444;28;20041;-68
2021/06/06 17:13:00;;;;;;;9.90;5.28;;;15.80;99.90;;;;;;5022388;28;20432;-68
2021/06/06 17:19:32;;;;;;;8.02;4.65;;;15.80;99.90;;;;;;5038991;28;20079;-68
2021/06/06 17:22:16;;;;;;;10.13;5.00;;;15.70;99.90;;;;;;5037928;28;20041;-68
2021/06/06 17:24:50;;;;;;;9.85;6.80;;;15.80;99.90;;;;;;5040373;28;20462;-68
2021/06/06 17:27:31;;;;;;;7.47;4.28;;;15.70;99.90;;;;;;5036041;28;20046;-69
2021/06/06 17:29:57;;;;;;;6.40;3.70;;;15.70;99.90;;;;;;5019672;28;20061;-68
2021/06/06 17:32:24;;;;;;;7.70;4.88;;;15.70;99.90;;;;;;5035359;28;20545;-69
2021/06/06 17:34:55;;;;;;;7.50;4.20;;;15.70;99.90;;;;;;5036860;28;20041;-68
2021/06/06 17:37:48;;;;;;;11.55;5.57;;;15.70;99.90;;;;;;5036444;28;20053;-68
2021/06/06 17:40:23;;;;;;;11.27;5.28;;;15.70;99.90;;;;;;5035898;28;20060;-68
2021/06/06 17:43:10;;;;;;;9.32;4.75;;;15.70;99.90;;;;;;5034349;28;20072;-68
2021/06/06 17:45:54;;;;;;;12.23;5.18;;;15.60;99.90;;;;;;5038945;28;20073;-68
2021/06/06 17:48:41;;;;;;;6.95;4.00;;;15.50;99.90;;;;;;5020903;28;20073;-68
2021/06/06 17:55:34;;;;;;;15.15;6.97;;;15.60;99.90;;;;;;5039558;28;20040;-68
2021/06/06 17:58:08;;;;;;;9.13;5.68;;;15.50;99.90;;;;;;5036156;28;20037;-68
2021/06/06 18:00:41;;;;;;;10.20;4.85;;;15.50;99.90;;;;;;5055218;28;20067;-68
2021/06/06 18:10:45;;;;;;;11.18;4.32;;;15.30;99.90;;;;;;5075321;28;20044;-68
2021/06/06 18:13:39;;;;;;;10.60;4.80;;;15.20;99.90;;;;;;5071204;28;20353;-68
2021/06/06 18:16:25;;;;;;;10.23;4.72;;;15.20;99.90;;;;;;5086199;28;20401;-69
2021/06/06 18:18:56;;;;;;;7.75;4.43;;;15.20;99.90;;;;;;5061985;28;20460;-69
2021/06/06 18:25:45;;;;;;;8.55;4.47;;;15.20;99.90;;;;;;5072257;28;20079;-69
2021/06/06 18:28:16;;;;;;;9.65;4.32;;;15.20;99.90;;;;;;5061115;28;20477;-69
2021/06/06 18:30:45;;;;;;;6.38;3.58;;;15.10;99.90;;;;;;5056604;28;20193;-68
2021/06/06 18:33:19;;;;;;;9.52;4.00;;;15.10;99.90;;;;;;5095091;28;20044;-68
2021/06/06 18:35:45;;;;;;;8.60;3.80;;;15.00;99.90;;;;;;5086785;28;20051;-68
2021/06/06 18:38:12;;;;;;;6.25;3.40;;;14.90;99.90;;;;;;5070903;28;20047;-68
2021/06/06 18:40:43;;;;;;;6.97;5.53;;;14.90;99.90;;;;;;5086283;28;20052;-68
2021/06/06 18:43:15;;;;;;;6.07;3.30;;;14.90;99.90;;;;;;5075598;28;20040;-68
2021/06/06 18:45:45;;;;;;;6.35;3.20;;;15.00;99.90;;;;;;5072652;28;20045;-68
2021/06/06 18:48:14;;;;;;;5.03;2.90;;;15.00;99.90;;;;;;5085466;28;20058;-68
2021/06/06 18:51:16;;;;;;;10.30;4.05;;;14.90;99.90;;;;;;5090673;28;20040;-68
2021/06/06 18:58:10;;;;;;;6.95;3.45;;;14.90;99.90;;;;;;5081198;28;20078;-68
2021/06/06 19:08:24;;;;;;;5.18;3.00;;;14.90;99.90;;;;;;5091193;28;20403;-68
2021/06/06 19:11:00;;;;;;;4.18;2.80;;;14.90;99.90;;;;;;5078362;28;20040;-68